sensor_id;sensor_type;location;lat;lon;timestamp;pressure;altitude;pressure_sealevel;temperature;humidity
64025;BME280;50266;57.446;26.936;2023-05-10T00:00:43;100324.84;;;7.76;100.0
64025;BME280;50266;57.446;26.936;2023-05-10T00:01:43;100330.55;;;7.7;100.0
64025;BME280;50266;57.446;26.936;2023-05-10T00:02:42;100330.09;;;7.63;100.0
64025;BME280;50266;57.446;26.936;2023-05-10T00:03:43;100328.66;;;7.92;100.0
64025;BME280;50266;57.446;26.936;2023-05-10T00:04:43;100325.48;;;7.94;100.0
64025;BME280;50266;57.446;26.936;2023-05-10T00:05:43;100327.66;;;7.9;100.0
64025;BME280;50266;57.446;26.936;2023-05-10T00:06:43;100330.66;;;7.71;100.0
64025;BME280;50266;57.446;26.936;2023-05-10T00:07:43;100325.34;;;7.57;100.0
64025;BME280;50266;57.446;26.936;2023-05-10T00:08:43;100329.7;;;7.62;100.0
64025;BME280;50266;57.446;26.936;2023-05-10T00:09:43;100326.28;;;7.96;100.0
64025;BME280;50266;57.446;26.936;2023-05-10T00:10:43;100330.03;;;7.85;100.0
64025;BME280;50266;57.446;26.936;2023-05-10T00:11:43;100332.82;;;7.66;100.0
64025;BME280;50266;57.446;26.936;2023-05-10T00:12:43;100331.2;;;7.77;100.0
64025;BME280;50266;57.446;26.936;2023-05-10T00:13:43;100335.89;;;7.76;100.0
64025;BME280;50266;57.446;26.936;2023-05-10T00:14:43;100336.04;;;7.82;100.0
64025;BME280;50266;57.446;26.936;2023-05-10T00:15:43;100335.52;;;7.51;100.0
64025;BME280;50266;57.446;26.936;2023-05-10T00:16:43;100336.45;;;7.24;100.0
64025;BME280;50266;57.446;26.936;2023-05-10T00:17:43;100337.91;;;7.3;100.0
64025;BME280;50266;57.446;26.936;2023-05-10T00:18:43;100340.61;;;7.37;100.0
64025;BME280;50266;57.446;26.936;2023-05-10T00:19:43;100338.64;;;7.41;100.0
64025;BME280;50266;57.446;26.936;2023-05-10T00:20:43;100332.52;;;7.67;100.0
64025;BME280;50266;57.446;26.936;2023-05-10T00:21:43;100336.05;;;7.75;100.0
64025;BME280;50266;57.446;26.936;2023-05-10T00:22:43;100336.91;;;7.76;100.0
64025;BME280;50266;57.446;26.936;2023-05-10T00:23:43;100336.55;;;7.74;100.0
64025;BME280;50266;57.446;26.936;2023-05-10T00:24:43;100336.02;;;7.72;100.0
64025;BME280;50266;57.446;26.936;2023-05-10T00:25:43;100337.36;;;7.67;100.0
64025;BME280;50266;57.446;26.936;2023-05-10T00:26:43;100340.8;;;7.59;100.0
64025;BME280;50266;57.446;26.936;2023-05-10T00:27:43;100342.34;;;7.39;100.0
64025;BME280;50266;57.446;26.936;2023-05-10T00:28:43;100345.83;;;7.16;100.0
64025;BME280;50266;57.446;26.936;2023-05-10T00:29:43;100343.77;;;7.15;100.0
64025;BME280;50266;57.446;26.936;2023-05-10T00:30:43;100344.81;;;7.18;100.0
64025;BME280;50266;57.446;26.936;2023-05-10T00:31:43;100343.57;;;7.33;100.0
64025;BME280;50266;57.446;26.936;2023-05-10T00:32:43;100346.4;;;7.37;100.0
64025;BME280;50266;57.446;26.936;2023-05-10T00:33:43;100349.11;;;7.37;100.0
64025;BME280;50266;57.446;26.936;2023-05-10T00:34:43;100347.14;;;7.14;100.0
64025;BME280;50266;57.446;26.936;2023-05-10T00:35:43;100346.72;;;7.1;100.0
64025;BME280;50266;57.446;26.936;2023-05-10T00:36:43;100350.09;;;7.16;100.0
64025;BME280;50266;57.446;26.936;2023-05-10T00:37:43;100347.03;;;7.19;100.0
64025;BME280;50266;57.446;26.936;2023-05-10T00:38:43;100350.7;;;7.13;100.0
64025;BME280;50266;57.446;26.936;2023-05-10T00:39:43;100346.2;;;6.85;100.0
64025;BME280;50266;57.446;26.936;2023-05-10T00:40:43;100351.81;;;7.22;100.0
64025;BME280;50266;57.446;26.936;2023-05-10T00:41:43;100350.77;;;7.32;100.0
64025;BME280;50266;57.446;26.936;2023-05-10T00:42:43;100355.17;;;7.19;100.0
64025;BME280;50266;57.446;26.936;2023-05-10T00:43:43;100352.04;;;7.28;100.0
64025;BME280;50266;57.446;26.936;2023-05-10T00:44:43;100352.09;;;7.26;100.0
64025;BME280;50266;57.446;26.936;2023-05-10T00:45:43;100352.47;;;7.22;100.0
64025;BME280;50266;57.446;26.936;2023-05-10T00:46:43;100352.98;;;7.31;100.0
64025;BME280;50266;57.446;26.936;2023-05-10T00:47:43;100352.05;;;7.29;100.0
64025;BME280;50266;57.446;26.936;2023-05-10T00:48:43;100353.39;;;7.21;100.0
64025;BME280;50266;57.446;26.936;2023-05-10T00:49:44;100351.56;;;7.18;100.0
64025;BME280;50266;57.446;26.936;2023-05-10T00:50:43;100350.09;;;7.22;100.0
64025;BME280;50266;57.446;26.936;2023-05-10T00:51:43;100350.7;;;7.25;100.0
64025;BME280;50266;57.446;26.936;2023-05-10T00:52:43;100352.89;;;7.27;100.0
64025;BME280;50266;57.446;26.936;2023-05-10T00:53:44;100351.31;;;7.28;100.0
64025;BME280;50266;57.446;26.936;2023-05-10T00:54:43;100351.52;;;7.24;100.0
64025;BME280;50266;57.446;26.936;2023-05-10T00:55:43;100357.89;;;7.28;100.0
64025;BME280;50266;57.446;26.936;2023-05-10T00:56:43;100354.79;;;7.16;100.0
64025;BME280;50266;57.446;26.936;2023-05-10T00:57:44;100350.16;;;7.22;100.0
64025;BME280;50266;57.446;26.936;2023-05-10T00:58:43;100349.56;;;7.09;100.0
64025;BME280;50266;57.446;26.936;2023-05-10T00:59:43;100352.92;;;7.07;100.0
64025;BME280;50266;57.446;26.936;2023-05-10T01:00:43;100352.27;;;7.1;100.0
64025;BME280;50266;57.446;26.936;2023-05-10T01:01:44;100351.8;;;7.15;100.0
64025;BME280;50266;57.446;26.936;2023-05-10T01:02:44;100353.67;;;7.24;100.0
64025;BME280;50266;57.446;26.936;2023-05-10T01:03:43;100349.76;;;7.21;100.0
64025;BME280;50266;57.446;26.936;2023-05-10T01:04:43;100351.88;;;7.16;100.0
64025;BME280;50266;57.446;26.936;2023-05-10T01:05:44;100350.55;;;7.2;100.0
64025;BME280;50266;57.446;26.936;2023-05-10T01:06:44;100348.86;;;7.33;100.0
64025;BME280;50266;57.446;26.936;2023-05-10T01:07:44;100351.27;;;7.32;100.0
64025;BME280;50266;57.446;26.936;2023-05-10T01:08:44;100348.4;;;7.34;100.0
64025;BME280;50266;57.446;26.936;2023-05-10T01:09:44;100347.2;;;7.26;100.0
64025;BME280;50266;57.446;26.936;2023-05-10T01:10:44;100354.62;;;7.22;100.0
64025;BME280;50266;57.446;26.936;2023-05-10T01:11:44;100351.2;;;7.12;100.0
64025;BME280;50266;57.446;26.936;2023-05-10T01:12:44;100351.1;;;7.13;100.0
64025;BME280;50266;57.446;26.936;2023-05-10T01:13:53;100350.19;;;7.15;100.0
64025;BME280;50266;57.446;26.936;2023-05-10T01:14:47;100349.58;;;7.06;100.0
64025;BME280;50266;57.446;26.936;2023-05-10T01:15:46;100352.64;;;6.95;100.0
64025;BME280;50266;57.446;26.936;2023-05-10T01:16:47;100348.72;;;6.97;100.0
64025;BME280;50266;57.446;26.936;2023-05-10T01:17:47;100349.38;;;7.0;100.0
64025;BME280;50266;57.446;26.936;2023-05-10T01:18:47;100350.58;;;7.02;100.0
64025;BME280;50266;57.446;26.936;2023-05-10T01:19:47;100352.3;;;6.47;100.0
64025;BME280;50266;57.446;26.936;2023-05-10T01:20:47;100352.73;;;6.47;100.0
64025;BME280;50266;57.446;26.936;2023-05-10T01:21:53;100353.57;;;6.75;100.0
64025;BME280;50266;57.446;26.936;2023-05-10T01:25:10;100353.05;;;6.77;100.0
64025;BME280;50266;57.446;26.936;2023-05-10T01:26:08;100351.61;;;6.74;100.0
64025;BME280;50266;57.446;26.936;2023-05-10T01:27:09;100356.3;;;6.87;100.0
64025;BME280;50266;57.446;26.936;2023-05-10T01:28:15;100355.59;;;6.8;100.0
64025;BME280;50266;57.446;26.936;2023-05-10T01:29:14;100356.96;;;6.69;100.0
64025;BME280;50266;57.446;26.936;2023-05-10T01:31:22;100355.69;;;6.9;100.0
64025;BME280;50266;57.446;26.936;2023-05-10T01:32:24;100357.86;;;6.89;100.0
64025;BME280;50266;57.446;26.936;2023-05-10T01:34:23;100359.49;;;7.07;100.0
64025;BME280;50266;57.446;26.936;2023-05-10T01:35:26;100355.77;;;6.92;100.0
64025;BME280;50266;57.446;26.936;2023-05-10T01:39:34;100356.77;;;6.7;100.0
64025;BME280;50266;57.446;26.936;2023-05-10T01:40:35;100357.39;;;6.61;100.0
64025;BME280;50266;57.446;26.936;2023-05-10T01:42:40;100353.73;;;6.58;100.0
64025;BME280;50266;57.446;26.936;2023-05-10T01:43:42;100352.06;;;6.55;100.0
64025;BME280;50266;57.446;26.936;2023-05-10T01:46:48;100355.02;;;6.62;100.0
64025;BME280;50266;57.446;26.936;2023-05-10T01:47:46;100351.33;;;6.59;100.0
64025;BME280;50266;57.446;26.936;2023-05-10T01:48:51;100354.38;;;6.6;100.0
64025;BME280;50266;57.446;26.936;2023-05-10T01:49:49;100355.57;;;6.48;100.0
64025;BME280;50266;57.446;26.936;2023-05-10T01:50:47;100354.08;;;6.39;100.0
64025;BME280;50266;57.446;26.936;2023-05-10T01:51:48;100356.67;;;6.45;100.0
64025;BME280;50266;57.446;26.936;2023-05-10T01:52:50;100354.48;;;6.47;100.0
64025;BME280;50266;57.446;26.936;2023-05-10T01:53:48;100354.3;;;6.46;100.0
64025;BME280;50266;57.446;26.936;2023-05-10T01:54:55;100355.41;;;6.52;100.0
64025;BME280;50266;57.446;26.936;2023-05-10T01:55:52;100353.78;;;6.43;100.0
64025;BME280;50266;57.446;26.936;2023-05-10T01:56:55;100352.95;;;6.42;100.0
64025;BME280;50266;57.446;26.936;2023-05-10T01:57:54;100352.61;;;6.41;100.0
64025;BME280;50266;57.446;26.936;2023-05-10T01:58:52;100353.2;;;6.36;100.0
64025;BME280;50266;57.446;26.936;2023-05-10T01:59:52;100352.22;;;6.37;100.0
64025;BME280;50266;57.446;26.936;2023-05-10T02:00:52;100353.01;;;6.45;100.0
64025;BME280;50266;57.446;26.936;2023-05-10T02:01:52;100352.83;;;6.44;100.0
64025;BME280;50266;57.446;26.936;2023-05-10T02:02:52;100349.75;;;6.5;100.0
64025;BME280;50266;57.446;26.936;2023-05-10T02:03:52;100351.47;;;6.55;100.0
64025;BME280;50266;57.446;26.936;2023-05-10T02:04:53;100350.05;;;6.69;100.0
64025;BME280;50266;57.446;26.936;2023-05-10T02:05:53;100350.54;;;6.81;100.0
64025;BME280;50266;57.446;26.936;2023-05-10T02:06:52;100347.94;;;6.82;100.0
64025;BME280;50266;57.446;26.936;2023-05-10T02:07:52;100353.05;;;6.71;100.0
64025;BME280;50266;57.446;26.936;2023-05-10T02:08:52;100354.17;;;6.58;100.0
64025;BME280;50266;57.446;26.936;2023-05-10T02:09:52;100356.08;;;6.37;100.0
64025;BME280;50266;57.446;26.936;2023-05-10T02:10:53;100354.14;;;6.28;100.0
64025;BME280;50266;57.446;26.936;2023-05-10T02:11:52;100362.37;;;6.22;100.0
64025;BME280;50266;57.446;26.936;2023-05-10T02:12:52;100357.89;;;6.29;100.0
64025;BME280;50266;57.446;26.936;2023-05-10T02:13:52;100356.05;;;6.53;100.0
64025;BME280;50266;57.446;26.936;2023-05-10T02:14:52;100357.16;;;6.52;100.0
64025;BME280;50266;57.446;26.936;2023-05-10T02:15:53;100355.36;;;6.67;100.0
64025;BME280;50266;57.446;26.936;2023-05-10T02:16:52;100354.38;;;6.78;100.0
64025;BME280;50266;57.446;26.936;2023-05-10T02:17:54;100355.93;;;6.97;100.0
64025;BME280;50266;57.446;26.936;2023-05-10T02:18:53;100357.47;;;6.89;100.0
64025;BME280;50266;57.446;26.936;2023-05-10T02:19:53;100355.5;;;6.78;100.0
64025;BME280;50266;57.446;26.936;2023-05-10T02:20:53;100357.38;;;6.51;100.0
64025;BME280;50266;57.446;26.936;2023-05-10T02:21:53;100358.59;;;6.27;100.0
64025;BME280;50266;57.446;26.936;2023-05-10T02:22:54;100357.38;;;6.31;100.0
64025;BME280;50266;57.446;26.936;2023-05-10T02:23:53;100360.11;;;6.53;100.0
64025;BME280;50266;57.446;26.936;2023-05-10T02:24:53;100355.75;;;6.58;100.0
64025;BME280;50266;57.446;26.936;2023-05-10T02:25:53;100358.91;;;6.53;100.0
64025;BME280;50266;57.446;26.936;2023-05-10T02:26:53;100358.81;;;6.48;100.0
64025;BME280;50266;57.446;26.936;2023-05-10T02:27:54;100358.55;;;6.49;100.0
64025;BME280;50266;57.446;26.936;2023-05-10T02:28:53;100356.45;;;6.68;100.0
64025;BME280;50266;57.446;26.936;2023-05-10T02:29:53;100357.12;;;6.73;100.0
64025;BME280;50266;57.446;26.936;2023-05-10T02:30:53;100360.8;;;6.79;100.0
64025;BME280;50266;57.446;26.936;2023-05-10T02:31:53;100361.38;;;6.68;100.0
64025;BME280;50266;57.446;26.936;2023-05-10T02:32:53;100357.83;;;6.62;100.0
64025;BME280;50266;57.446;26.936;2023-05-10T02:33:53;100359.45;;;6.58;100.0
64025;BME280;50266;57.446;26.936;2023-05-10T02:34:53;100363.72;;;6.63;100.0
64025;BME280;50266;57.446;26.936;2023-05-10T02:35:53;100363.42;;;6.67;100.0
64025;BME280;50266;57.446;26.936;2023-05-10T02:36:53;100364.59;;;6.79;100.0
64025;BME280;50266;57.446;26.936;2023-05-10T02:37:53;100364.89;;;6.94;100.0
64025;BME280;50266;57.446;26.936;2023-05-10T02:38:53;100363.18;;;6.94;100.0
64025;BME280;50266;57.446;26.936;2023-05-10T02:39:53;100363.05;;;7.04;100.0
64025;BME280;50266;57.446;26.936;2023-05-10T02:40:53;100364.84;;;7.12;100.0
64025;BME280;50266;57.446;26.936;2023-05-10T02:41:53;100367.12;;;7.13;100.0
64025;BME280;50266;57.446;26.936;2023-05-10T02:42:54;100361.91;;;7.07;100.0
64025;BME280;50266;57.446;26.936;2023-05-10T02:43:53;100360.89;;;6.98;100.0
64025;BME280;50266;57.446;26.936;2023-05-10T02:44:54;100364.12;;;6.87;100.0
64025;BME280;50266;57.446;26.936;2023-05-10T02:45:54;100364.44;;;6.76;100.0
64025;BME280;50266;57.446;26.936;2023-05-10T02:46:53;100366.01;;;6.73;100.0
64025;BME280;50266;57.446;26.936;2023-05-10T02:47:53;100363.8;;;6.89;100.0
64025;BME280;50266;57.446;26.936;2023-05-10T02:48:53;100364.74;;;7.12;100.0
64025;BME280;50266;57.446;26.936;2023-05-10T02:49:53;100367.08;;;7.16;100.0
64025;BME280;50266;57.446;26.936;2023-05-10T02:50:53;100363.23;;;7.19;100.0
64025;BME280;50266;57.446;26.936;2023-05-10T02:51:56;100365.95;;;7.15;100.0
64025;BME280;50266;57.446;26.936;2023-05-10T02:52:55;100365.88;;;7.19;100.0
64025;BME280;50266;57.446;26.936;2023-05-10T02:53:55;100364.3;;;6.95;100.0
64025;BME280;50266;57.446;26.936;2023-05-10T02:54:55;100368.61;;;6.73;100.0
64025;BME280;50266;57.446;26.936;2023-05-10T02:55:56;100367.69;;;6.49;100.0
64025;BME280;50266;57.446;26.936;2023-05-10T02:56:59;100373.23;;;6.37;100.0
64025;BME280;50266;57.446;26.936;2023-05-10T02:57:57;100376.69;;;6.11;100.0
64025;BME280;50266;57.446;26.936;2023-05-10T02:58:56;100377.69;;;5.93;100.0
64025;BME280;50266;57.446;26.936;2023-05-10T02:59:56;100379.64;;;6.13;100.0
64025;BME280;50266;57.446;26.936;2023-05-10T03:00:56;100373.97;;;6.3;100.0
64025;BME280;50266;57.446;26.936;2023-05-10T03:01:56;100373.44;;;6.38;100.0
64025;BME280;50266;57.446;26.936;2023-05-10T03:02:56;100374.06;;;6.44;100.0
64025;BME280;50266;57.446;26.936;2023-05-10T03:03:56;100375.67;;;6.63;100.0
64025;BME280;50266;57.446;26.936;2023-05-10T03:04:56;100374.29;;;6.68;100.0
64025;BME280;50266;57.446;26.936;2023-05-10T03:05:56;100372.69;;;6.62;100.0
64025;BME280;50266;57.446;26.936;2023-05-10T03:06:56;100374.72;;;6.78;100.0
64025;BME280;50266;57.446;26.936;2023-05-10T03:07:56;100375.3;;;6.74;100.0
64025;BME280;50266;57.446;26.936;2023-05-10T03:08:56;100371.34;;;6.77;100.0
64025;BME280;50266;57.446;26.936;2023-05-10T03:09:56;100375.23;;;6.83;100.0
64025;BME280;50266;57.446;26.936;2023-05-10T03:12:21;100373.47;;;7.13;100.0
64025;BME280;50266;57.446;26.936;2023-05-10T03:13:10;100377.84;;;7.2;100.0
64025;BME280;50266;57.446;26.936;2023-05-10T03:14:23;100374.28;;;7.21;100.0
64025;BME280;50266;57.446;26.936;2023-05-10T03:16:20;100371.98;;;7.32;100.0
64025;BME280;50266;57.446;26.936;2023-05-10T03:18:26;100369.55;;;7.48;100.0
64025;BME280;50266;57.446;26.936;2023-05-10T03:19:26;100369.14;;;7.61;100.0
64025;BME280;50266;57.446;26.936;2023-05-10T03:21:26;100363.27;;;7.95;100.0
64025;BME280;50266;57.446;26.936;2023-05-10T03:22:27;100365.09;;;7.86;100.0
64025;BME280;50266;57.446;26.936;2023-05-10T03:23:27;100367.44;;;7.96;100.0
64025;BME280;50266;57.446;26.936;2023-05-10T03:24:27;100365.19;;;7.96;100.0
64025;BME280;50266;57.446;26.936;2023-05-10T03:25:27;100367.72;;;8.01;100.0
64025;BME280;50266;57.446;26.936;2023-05-10T03:26:27;100362.29;;;8.02;100.0
64025;BME280;50266;57.446;26.936;2023-05-10T03:27:26;100362.1;;;7.91;100.0
64025;BME280;50266;57.446;26.936;2023-05-10T03:28:26;100365.45;;;7.96;100.0
64025;BME280;50266;57.446;26.936;2023-05-10T03:29:26;100368.56;;;7.94;100.0
64025;BME280;50266;57.446;26.936;2023-05-10T03:30:26;100367.8;;;7.92;100.0
64025;BME280;50266;57.446;26.936;2023-05-10T03:31:26;100369.21;;;8.04;100.0
64025;BME280;50266;57.446;26.936;2023-05-10T03:32:26;100370.82;;;8.13;100.0
64025;BME280;50266;57.446;26.936;2023-05-10T03:33:26;100368.44;;;8.17;100.0
64025;BME280;50266;57.446;26.936;2023-05-10T03:34:26;100368.74;;;8.17;100.0
64025;BME280;50266;57.446;26.936;2023-05-10T03:35:26;100367.95;;;8.24;100.0
64025;BME280;50266;57.446;26.936;2023-05-10T03:36:26;100366.45;;;8.37;100.0
64025;BME280;50266;57.446;26.936;2023-05-10T03:37:26;100365.5;;;8.48;100.0
64025;BME280;50266;57.446;26.936;2023-05-10T03:38:26;100368.44;;;8.57;100.0
64025;BME280;50266;57.446;26.936;2023-05-10T03:39:26;100364.7;;;8.58;100.0
64025;BME280;50266;57.446;26.936;2023-05-10T03:40:26;100365.86;;;8.59;100.0
64025;BME280;50266;57.446;26.936;2023-05-10T03:41:26;100368.08;;;8.61;100.0
64025;BME280;50266;57.446;26.936;2023-05-10T03:42:26;100363.61;;;8.66;100.0
64025;BME280;50266;57.446;26.936;2023-05-10T03:43:26;100368.02;;;8.65;100.0
64025;BME280;50266;57.446;26.936;2023-05-10T03:44:26;100369.91;;;8.6;100.0
64025;BME280;50266;57.446;26.936;2023-05-10T03:45:27;100370.06;;;8.74;100.0
64025;BME280;50266;57.446;26.936;2023-05-10T03:46:27;100369.33;;;8.72;100.0
64025;BME280;50266;57.446;26.936;2023-05-10T03:47:27;100368.44;;;8.66;100.0
64025;BME280;50266;57.446;26.936;2023-05-10T03:48:27;100370.85;;;8.78;100.0
64025;BME280;50266;57.446;26.936;2023-05-10T03:49:27;100367.7;;;8.89;100.0
64025;BME280;50266;57.446;26.936;2023-05-10T03:50:27;100369.58;;;8.91;100.0
64025;BME280;50266;57.446;26.936;2023-05-10T03:51:27;100368.64;;;8.99;100.0
64025;BME280;50266;57.446;26.936;2023-05-10T03:52:27;100371.28;;;9.06;100.0
64025;BME280;50266;57.446;26.936;2023-05-10T03:53:27;100368.77;;;9.05;100.0
64025;BME280;50266;57.446;26.936;2023-05-10T03:54:27;100373.77;;;9.07;100.0
64025;BME280;50266;57.446;26.936;2023-05-10T03:55:27;100372.79;;;9.14;100.0
64025;BME280;50266;57.446;26.936;2023-05-10T03:56:27;100371.86;;;9.13;100.0
64025;BME280;50266;57.446;26.936;2023-05-10T03:57:27;100376.03;;;9.2;100.0
64025;BME280;50266;57.446;26.936;2023-05-10T03:58:27;100378.4;;;9.24;100.0
64025;BME280;50266;57.446;26.936;2023-05-10T03:59:27;100373.71;;;9.29;100.0
64025;BME280;50266;57.446;26.936;2023-05-10T04:00:27;100375.54;;;9.29;100.0
64025;BME280;50266;57.446;26.936;2023-05-10T04:01:27;100371.34;;;9.35;100.0
64025;BME280;50266;57.446;26.936;2023-05-10T04:02:27;100376.59;;;9.41;100.0
64025;BME280;50266;57.446;26.936;2023-05-10T04:03:27;100376.8;;;9.4;100.0
64025;BME280;50266;57.446;26.936;2023-05-10T04:04:27;100376.58;;;9.47;100.0
64025;BME280;50266;57.446;26.936;2023-05-10T04:05:27;100376.89;;;9.5;100.0
64025;BME280;50266;57.446;26.936;2023-05-10T04:06:27;100377.36;;;9.51;100.0
64025;BME280;50266;57.446;26.936;2023-05-10T04:07:27;100379.61;;;9.61;100.0
64025;BME280;50266;57.446;26.936;2023-05-10T04:08:27;100382.88;;;9.57;100.0
64025;BME280;50266;57.446;26.936;2023-05-10T04:09:27;100382.27;;;9.6;100.0
64025;BME280;50266;57.446;26.936;2023-05-10T04:10:27;100381.42;;;9.63;100.0
64025;BME280;50266;57.446;26.936;2023-05-10T04:11:27;100378.16;;;9.74;100.0
64025;BME280;50266;57.446;26.936;2023-05-10T04:12:27;100379.34;;;9.76;100.0
64025;BME280;50266;57.446;26.936;2023-05-10T04:13:27;100377.16;;;9.75;100.0
64025;BME280;50266;57.446;26.936;2023-05-10T04:14:27;100376.61;;;9.79;100.0
64025;BME280;50266;57.446;26.936;2023-05-10T04:15:27;100374.45;;;9.91;100.0
64025;BME280;50266;57.446;26.936;2023-05-10T04:16:27;100374.03;;;9.95;100.0
64025;BME280;50266;57.446;26.936;2023-05-10T04:17:27;100380.36;;;9.97;100.0
64025;BME280;50266;57.446;26.936;2023-05-10T04:18:27;100376.11;;;9.91;100.0
64025;BME280;50266;57.446;26.936;2023-05-10T04:19:30;100383.88;;;9.91;100.0
64025;BME280;50266;57.446;26.936;2023-05-10T04:20:27;100382.22;;;9.98;100.0
64025;BME280;50266;57.446;26.936;2023-05-10T04:21:27;100379.3;;;9.93;100.0
64025;BME280;50266;57.446;26.936;2023-05-10T04:22:27;100381.59;;;9.91;100.0
64025;BME280;50266;57.446;26.936;2023-05-10T04:23:27;100381.73;;;9.9;100.0
64025;BME280;50266;57.446;26.936;2023-05-10T04:24:27;100379.52;;;9.94;100.0
64025;BME280;50266;57.446;26.936;2023-05-10T04:25:27;100382.92;;;9.97;100.0
64025;BME280;50266;57.446;26.936;2023-05-10T04:26:27;100380.88;;;9.96;100.0
64025;BME280;50266;57.446;26.936;2023-05-10T04:27:27;100379.59;;;9.99;100.0
64025;BME280;50266;57.446;26.936;2023-05-10T04:28:27;100381.7;;;10.02;100.0
64025;BME280;50266;57.446;26.936;2023-05-10T04:29:27;100382.3;;;10.02;100.0
64025;BME280;50266;57.446;26.936;2023-05-10T04:30:27;100379.89;;;10.11;100.0
64025;BME280;50266;57.446;26.936;2023-05-10T04:31:27;100381.29;;;10.04;100.0
64025;BME280;50266;57.446;26.936;2023-05-10T04:32:27;100383.05;;;10.04;100.0
64025;BME280;50266;57.446;26.936;2023-05-10T04:33:27;100380.81;;;10.07;100.0
64025;BME280;50266;57.446;26.936;2023-05-10T04:34:27;100382.83;;;10.02;100.0
64025;BME280;50266;57.446;26.936;2023-05-10T04:35:27;100384.38;;;9.99;100.0
64025;BME280;50266;57.446;26.936;2023-05-10T04:36:27;100385.77;;;10.1;100.0
64025;BME280;50266;57.446;26.936;2023-05-10T04:37:27;100383.27;;;10.17;100.0
64025;BME280;50266;57.446;26.936;2023-05-10T04:38:27;100382.91;;;10.15;100.0
64025;BME280;50266;57.446;26.936;2023-05-10T04:39:27;100382.8;;;10.13;100.0
64025;BME280;50266;57.446;26.936;2023-05-10T04:40:27;100382.27;;;10.17;100.0
64025;BME280;50266;57.446;26.936;2023-05-10T04:41:27;100381.06;;;10.21;100.0
64025;BME280;50266;57.446;26.936;2023-05-10T04:42:27;100385.3;;;10.22;100.0
64025;BME280;50266;57.446;26.936;2023-05-10T04:43:27;100383.77;;;10.23;100.0
64025;BME280;50266;57.446;26.936;2023-05-10T04:44:28;100387.48;;;10.23;100.0
64025;BME280;50266;57.446;26.936;2023-05-10T04:45:27;100379.15;;;10.28;100.0
64025;BME280;50266;57.446;26.936;2023-05-10T04:46:28;100385.83;;;10.32;100.0
64025;BME280;50266;57.446;26.936;2023-05-10T04:47:30;100379.62;;;10.41;100.0
64025;BME280;50266;57.446;26.936;2023-05-10T04:48:30;100381.98;;;10.4;100.0
64025;BME280;50266;57.446;26.936;2023-05-10T04:49:30;100388.66;;;10.36;100.0
64025;BME280;50266;57.446;26.936;2023-05-10T04:50:30;100382.39;;;10.4;100.0
64025;BME280;50266;57.446;26.936;2023-05-10T04:51:30;100386.68;;;10.39;100.0
64025;BME280;50266;57.446;26.936;2023-05-10T04:52:30;100383.3;;;10.47;100.0
64025;BME280;50266;57.446;26.936;2023-05-10T04:53:30;100386.19;;;10.51;100.0
64025;BME280;50266;57.446;26.936;2023-05-10T04:54:30;100386.05;;;10.56;100.0
64025;BME280;50266;57.446;26.936;2023-05-10T04:55:31;100386.66;;;10.56;100.0
64025;BME280;50266;57.446;26.936;2023-05-10T04:56:31;100392.16;;;10.56;100.0
64025;BME280;50266;57.446;26.936;2023-05-10T04:57:31;100390.52;;;10.59;100.0
64025;BME280;50266;57.446;26.936;2023-05-10T04:58:31;100391.59;;;10.7;100.0
64025;BME280;50266;57.446;26.936;2023-05-10T04:59:31;100389.72;;;10.68;100.0
64025;BME280;50266;57.446;26.936;2023-05-10T05:00:31;100392.31;;;10.75;100.0
64025;BME280;50266;57.446;26.936;2023-05-10T05:01:31;100390.56;;;10.74;100.0
64025;BME280;50266;57.446;26.936;2023-05-10T05:02:31;100386.76;;;10.83;100.0
64025;BME280;50266;57.446;26.936;2023-05-10T05:03:31;100388.42;;;10.91;100.0
64025;BME280;50266;57.446;26.936;2023-05-10T05:04:31;100386.11;;;10.96;100.0
64025;BME280;50266;57.446;26.936;2023-05-10T05:05:31;100386.61;;;11.03;100.0
64025;BME280;50266;57.446;26.936;2023-05-10T05:06:31;100385.21;;;11.1;100.0
64025;BME280;50266;57.446;26.936;2023-05-10T05:07:31;100386.46;;;11.11;100.0
64025;BME280;50266;57.446;26.936;2023-05-10T05:08:31;100388.95;;;11.14;100.0
64025;BME280;50266;57.446;26.936;2023-05-10T05:09:31;100384.88;;;11.16;100.0
64025;BME280;50266;57.446;26.936;2023-05-10T05:10:31;100389.66;;;11.26;100.0
64025;BME280;50266;57.446;26.936;2023-05-10T05:11:31;100391.47;;;11.26;100.0
64025;BME280;50266;57.446;26.936;2023-05-10T05:12:31;100390.52;;;11.31;100.0
64025;BME280;50266;57.446;26.936;2023-05-10T05:13:31;100390.58;;;11.34;100.0
64025;BME280;50266;57.446;26.936;2023-05-10T05:14:31;100390.09;;;11.33;100.0
64025;BME280;50266;57.446;26.936;2023-05-10T05:15:31;100390.05;;;11.36;100.0
64025;BME280;50266;57.446;26.936;2023-05-10T05:16:31;100388.81;;;11.46;100.0
64025;BME280;50266;57.446;26.936;2023-05-10T05:17:31;100388.98;;;11.54;100.0
64025;BME280;50266;57.446;26.936;2023-05-10T05:18:31;100390.55;;;11.46;100.0
64025;BME280;50266;57.446;26.936;2023-05-10T05:19:31;100390.97;;;11.64;100.0
64025;BME280;50266;57.446;26.936;2023-05-10T05:20:34;100394.53;;;11.67;100.0
64025;BME280;50266;57.446;26.936;2023-05-10T05:21:31;100394.23;;;11.75;100.0
64025;BME280;50266;57.446;26.936;2023-05-10T05:22:31;100392.73;;;11.82;100.0
64025;BME280;50266;57.446;26.936;2023-05-10T05:23:31;100392.89;;;11.81;100.0
64025;BME280;50266;57.446;26.936;2023-05-10T05:24:34;100393.47;;;11.87;100.0
64025;BME280;50266;57.446;26.936;2023-05-10T05:25:31;100393.34;;;11.95;100.0
64025;BME280;50266;57.446;26.936;2023-05-10T05:26:31;100395.58;;;11.9;100.0
64025;BME280;50266;57.446;26.936;2023-05-10T05:27:31;100395.95;;;11.94;100.0
64025;BME280;50266;57.446;26.936;2023-05-10T05:28:31;100395.7;;;12.1;100.0
64025;BME280;50266;57.446;26.936;2023-05-10T05:29:31;100386.34;;;12.38;100.0